createdAt,value
2022-08-14T00:04:36.098Z,49.13
2022-08-14T00:07:07.639Z,49.59
2022-08-14T00:12:40.275Z,50.34
2022-08-14T00:18:31.006Z,50.57
2022-08-14T00:23:54.237Z,50.79
2022-08-14T00:26:42.816Z,51.53
2022-08-14T00:32:52.577Z,51.07
2022-08-14T00:35:11.749Z,51.21
2022-08-14T00:40:48.681Z,52.63
2022-08-14T00:46:23.425Z,52.44
2022-08-14T00:52:00.645Z,51.94
2022-08-14T00:54:58.090Z,52.37
2022-08-14T01:00:37.559Z,52.76
2022-08-14T01:06:12.592Z,52.72
2022-08-14T01:09:02.198Z,52.92
2022-08-14T01:12:02.927Z,52.53
2022-08-14T01:14:41.670Z,52.47
2022-08-14T01:17:52.281Z,53.00
2022-08-14T01:23:22.982Z,52.91
2022-08-14T01:29:04.211Z,53.75
2022-08-14T01:35:17.791Z,53.29
2022-08-14T01:37:24.876Z,53.34
2022-08-14T01:42:56.699Z,53.83
2022-08-14T01:46:06.301Z,53.83
2022-08-14T01:51:28.423Z,54.99
2022-08-14T01:54:20.405Z,55.13
2022-08-14T01:57:11.905Z,54.63
2022-08-14T02:02:48.018Z,54.81
2022-08-14T02:08:34.694Z,55.23
2022-08-14T02:14:07.566Z,54.59
2022-08-14T02:16:55.404Z,55.26
2022-08-14T02:19:43.754Z,55.99
2022-08-14T02:28:24.751Z,56.64
2022-08-14T02:34:04.620Z,57.11
2022-08-14T02:37:04.451Z,57.75
2022-08-14T02:42:37.169Z,58.67
2022-08-14T02:45:33.487Z,58.71
2022-08-14T02:51:00.816Z,59.07
2022-08-14T02:53:51.923Z,59.59
2022-08-14T02:59:29.488Z,58.96
2022-08-14T03:02:49.235Z,59.66
2022-08-14T03:08:07.947Z,60.92
2022-08-14T03:13:44.532Z,59.57
2022-08-14T03:16:35.717Z,59.60
2022-08-14T03:22:09.307Z,60.46
2022-08-14T03:24:58.890Z,61.30
2022-08-14T03:30:39.981Z,63.71
2022-08-14T03:37:38.855Z,64.21
2022-08-14T03:41:55.295Z,65.04
2022-08-14T03:45:27.700Z,65.34
2022-08-14T03:50:31.101Z,63.40
2022-08-14T03:53:13.989Z,63.51
2022-08-14T03:58:51.672Z,63.23
2022-08-14T04:04:22.332Z,65.01
2022-08-14T04:10:02.776Z,65.21
2022-08-14T04:15:31.296Z,64.33
2022-08-14T04:21:04.713Z,64.11
2022-08-14T04:29:28.132Z,65.82
2022-08-14T04:35:07.855Z,66.57
2022-08-14T04:38:36.788Z,66.55
2022-08-14T04:41:17.774Z,66.54
2022-08-14T04:47:07.279Z,65.71
2022-08-14T04:52:44.177Z,66.30
2022-08-14T04:55:34.078Z,66.00
2022-08-14T05:01:19.637Z,65.21
2022-08-14T05:04:07.106Z,65.34
2022-08-14T05:06:55.961Z,65.73
2022-08-14T05:13:11.249Z,65.15
2022-08-14T05:19:17.068Z,65.37
2022-08-14T05:24:18.942Z,60.78
2022-08-14T05:27:09.454Z,56.74
2022-08-14T05:29:58.916Z,53.74
2022-08-14T05:35:25.338Z,49.93
2022-08-14T05:38:30.977Z,48.66
2022-08-14T05:46:29.872Z,44.50
2022-08-14T05:49:18.278Z,43.76
2022-08-14T05:57:50.355Z,43.41
2022-08-14T06:00:42.170Z,43.37
2022-08-14T06:03:34.734Z,42.50
2022-08-14T06:06:25.224Z,41.77
2022-08-14T06:12:04.916Z,40.81
2022-08-14T06:18:03.734Z,40.29
2022-08-14T06:20:52.755Z,39.33
2022-08-14T06:26:33.968Z,38.18
2022-08-14T06:29:25.331Z,37.73
2022-08-14T06:35:12.488Z,39.06
2022-08-14T06:40:43.061Z,40.08
2022-08-14T06:43:30.650Z,40.64
2022-08-14T06:46:23.064Z,39.75
2022-08-14T06:49:10.879Z,39.75
2022-08-14T06:54:50.035Z,39.53
2022-08-14T07:00:27.107Z,40.44
2022-08-14T07:05:59.469Z,39.59
2022-08-14T07:11:44.759Z,39.91
2022-08-14T07:14:34.158Z,39.99
2022-08-14T07:17:23.230Z,40.00
2022-08-14T07:20:31.214Z,39.75
2022-08-14T07:23:20.693Z,40.87
2022-08-14T07:28:49.290Z,41.35
2022-08-14T07:34:40.865Z,40.92
2022-08-14T07:37:28.102Z,41.82
2022-08-14T07:40:27.367Z,41.89
2022-08-14T07:46:01.047Z,41.14
2022-08-14T07:51:36.604Z,41.01
2022-08-14T07:57:26.298Z,43.24
2022-08-14T08:03:03.923Z,42.93
2022-08-14T08:08:39.308Z,41.63
2022-08-14T08:14:56.765Z,42.86
2022-08-14T08:20:21.644Z,44.07
2022-08-14T08:31:33.001Z,43.76
2022-08-14T08:37:07.241Z,43.64
2022-08-14T08:42:38.856Z,42.42
2022-08-14T08:48:20.687Z,41.47
2022-08-14T08:53:42.471Z,41.32
2022-08-14T08:59:30.937Z,38.83
2022-08-14T09:05:03.214Z,37.54
2022-08-14T09:10:37.207Z,41.58
2022-08-14T09:16:18.595Z,42.09
2022-08-14T09:21:42.656Z,42.22
2022-08-14T09:27:22.229Z,41.81
2022-08-14T09:33:00.097Z,41.33
2022-08-14T09:35:57.038Z,42.34
2022-08-14T09:38:50.766Z,40.91
2022-08-14T09:42:20.280Z,40.66
2022-08-14T09:47:46.507Z,38.86
2022-08-14T09:54:19.353Z,37.89
2022-08-14T09:56:45.610Z,38.75
2022-08-14T10:02:45.681Z,40.42
2022-08-14T10:08:26.414Z,39.28
2022-08-14T10:14:29.554Z,39.25
2022-08-14T10:19:52.541Z,37.70
2022-08-14T10:23:14.696Z,37.36
2022-08-14T10:31:45.366Z,37.08
2022-08-14T10:34:36.574Z,35.75
2022-08-14T10:40:38.350Z,36.78
2022-08-14T10:46:03.320Z,36.66
2022-08-14T10:52:01.818Z,34.64
2022-08-14T10:57:48.758Z,34.00
2022-08-14T11:06:15.142Z,33.70
2022-08-14T11:12:44.092Z,33.31
2022-08-14T11:14:59.448Z,33.59
2022-08-14T11:17:47.385Z,33.07
2022-08-14T11:20:39.421Z,32.62
2022-08-14T11:23:37.746Z,32.99
2022-08-14T11:26:23.657Z,32.52
2022-08-14T11:32:03.291Z,32.81
2022-08-14T11:37:43.907Z,31.40
2022-08-14T11:40:36.087Z,32.61
2022-08-14T11:43:29.462Z,33.64
2022-08-14T11:46:17.744Z,34.18
2022-08-14T11:51:56.826Z,34.57
2022-08-14T11:57:33.480Z,34.22
2022-08-14T12:00:21.785Z,33.85
2022-08-14T12:03:14.380Z,33.82
2022-08-14T12:08:53.911Z,34.49
2022-08-14T12:11:47.377Z,34.10
2022-08-14T12:14:39.646Z,34.56
2022-08-14T12:17:25.943Z,35.53
2022-08-14T12:26:31.936Z,34.60
2022-08-14T12:32:08.823Z,33.93
2022-08-14T12:34:58.100Z,33.66
2022-08-14T12:37:50.863Z,33.17
2022-08-14T12:40:48.426Z,30.37
2022-08-14T12:46:35.225Z,31.18
2022-08-14T12:52:17.933Z,30.85
2022-08-14T12:58:00.837Z,31.52
2022-08-14T13:01:12.634Z,31.59
2022-08-14T13:06:34.216Z,31.39
2022-08-14T13:12:32.216Z,31.52
2022-08-14T13:18:01.092Z,31.85
2022-08-14T13:23:37.604Z,32.01
2022-08-14T13:29:14.696Z,33.28
2022-08-14T13:32:05.429Z,33.63
2022-08-14T13:40:30.277Z,34.26
2022-08-14T13:46:04.439Z,35.13
2022-08-14T13:51:47.293Z,34.65
2022-08-14T13:54:38.544Z,34.83
2022-08-14T14:00:15.167Z,34.31
2022-08-14T14:05:54.860Z,34.38
2022-08-14T14:11:34.586Z,34.29
2022-08-14T14:17:05.508Z,34.62
2022-08-14T14:23:02.203Z,35.05
2022-08-14T14:25:43.224Z,35.14
2022-08-14T14:31:16.875Z,35.85
2022-08-14T14:37:07.103Z,36.18
2022-08-14T14:42:55.658Z,36.51
2022-08-14T14:45:46.237Z,36.20
2022-08-14T14:51:15.550Z,36.25
2022-08-14T14:54:06.277Z,36.48
2022-08-14T14:56:55.717Z,36.60
2022-08-14T14:59:45.377Z,36.52
2022-08-14T15:05:18.069Z,37.60
2022-08-14T15:10:57.891Z,37.93
2022-08-14T15:13:53.227Z,38.13
2022-08-14T15:19:27.681Z,38.12
2022-08-14T15:25:04.190Z,38.08
2022-08-14T15:30:41.994Z,38.26
2022-08-14T15:34:13.379Z,38.09
2022-08-14T15:36:40.123Z,38.28
2022-08-14T15:39:33.988Z,38.63
2022-08-14T15:47:51.914Z,39.13
2022-08-14T15:53:22.977Z,39.28
2022-08-14T15:58:49.663Z,39.50
2022-08-14T16:04:28.911Z,39.35
2022-08-14T16:07:22.175Z,39.49
2022-08-14T16:12:51.743Z,38.94
2022-08-14T16:18:35.943Z,39.41
2022-08-14T16:24:27.506Z,39.34
2022-08-14T16:32:55.448Z,39.57
2022-08-14T16:35:42.575Z,39.15
2022-08-14T16:41:29.596Z,40.05
2022-08-14T16:47:07.363Z,40.35
2022-08-14T16:50:03.812Z,40.47
2022-08-14T16:52:56.088Z,40.86
2022-08-14T16:58:29.568Z,41.17
2022-08-14T17:04:09.077Z,41.36
2022-08-14T17:09:43.203Z,41.51
2022-08-14T17:12:35.187Z,41.74
2022-08-14T17:15:23.474Z,41.62
2022-08-14T17:18:15.066Z,41.78
2022-08-14T17:21:19.465Z,41.92
2022-08-14T17:29:54.380Z,42.21
2022-08-14T17:32:55.777Z,42.48
2022-08-14T17:35:57.931Z,42.28
2022-08-14T17:41:23.296Z,42.30
2022-08-14T17:46:58.000Z,42.45
2022-08-14T17:52:41.420Z,42.78
2022-08-14T17:56:03.377Z,42.63
2022-08-14T17:58:24.262Z,42.88
2022-08-14T18:01:15.576Z,42.85
2022-08-14T18:04:25.147Z,43.09
2022-08-14T18:07:06.201Z,43.08
2022-08-14T18:12:36.612Z,43.56
2022-08-14T18:18:13.772Z,43.81
2022-08-14T18:23:52.127Z,44.14
2022-08-14T18:26:41.617Z,44.77
2022-08-14T18:29:31.714Z,44.83
2022-08-14T18:35:45.972Z,45.47
2022-08-14T18:44:15.648Z,45.42
2022-08-14T18:53:15.223Z,45.86
2022-08-14T18:58:57.282Z,45.93
2022-08-14T19:04:41.841Z,46.11
2022-08-14T19:07:33.852Z,46.31
2022-08-14T19:16:22.734Z,46.24
2022-08-14T19:21:57.766Z,47.18
2022-08-14T19:24:50.238Z,47.08
2022-08-14T19:30:29.343Z,47.35
2022-08-14T19:37:05.314Z,47.34
2022-08-14T19:42:46.768Z,47.51
2022-08-14T19:45:30.120Z,47.60
2022-08-14T19:51:12.243Z,47.43
2022-08-14T19:56:49.577Z,47.40
2022-08-14T19:59:57.611Z,48.02
2022-08-14T20:05:18.251Z,48.72
2022-08-14T20:08:07.522Z,48.72
2022-08-14T20:13:45.118Z,49.13
2022-08-14T20:16:36.888Z,49.00
2022-08-14T20:19:29.138Z,49.18
2022-08-14T20:25:15.114Z,49.66
2022-08-14T20:31:22.234Z,49.82
2022-08-14T20:34:19.099Z,49.96
2022-08-14T20:39:54.285Z,50.28
2022-08-14T20:45:28.839Z,50.15
2022-08-14T20:48:53.242Z,50.36
2022-08-14T20:51:24.342Z,50.23
2022-08-14T20:59:47.091Z,50.83
2022-08-14T21:02:50.173Z,51.50
2022-08-14T21:05:33.712Z,51.57
2022-08-14T21:14:24.850Z,53.04
2022-08-14T21:22:37.028Z,53.79
2022-08-14T21:28:29.938Z,54.47
2022-08-14T21:33:56.483Z,54.59
2022-08-14T21:39:36.337Z,54.58
2022-08-14T21:42:27.968Z,54.55
2022-08-14T21:48:09.185Z,54.54
2022-08-14T21:53:58.547Z,55.00
2022-08-14T21:56:37.122Z,54.98
2022-08-14T22:02:32.967Z,54.94
2022-08-14T22:08:11.938Z,55.27
2022-08-14T22:13:51.381Z,55.45
2022-08-14T22:22:26.097Z,55.80
2022-08-14T22:25:22.538Z,55.93
2022-08-14T22:28:17.839Z,56.07
2022-08-14T22:33:58.063Z,56.63
2022-08-14T22:40:17.379Z,56.91
2022-08-14T22:42:22.692Z,56.75
2022-08-14T22:47:57.448Z,57.44
2022-08-14T22:53:29.143Z,58.16
2022-08-14T22:59:04.875Z,58.88
2022-08-14T23:04:54.261Z,60.25
2022-08-14T23:09:00.128Z,61.05
2022-08-14T23:10:32.093Z,63.85
2022-08-14T23:16:02.309Z,68.58
2022-08-14T23:21:46.427Z,69.96
2022-08-14T23:27:20.994Z,70.64
2022-08-14T23:30:33.888Z,71.39
2022-08-14T23:36:31.583Z,75.56
2022-08-14T23:41:46.267Z,76.55
2022-08-14T23:44:31.272Z,77.43
2022-08-14T23:47:26.596Z,79.23
2022-08-14T23:53:07.454Z,81.86
2022-08-14T23:55:47.026Z,83.89
